X  Cerrar Datos meteorológicos de aviación METAR     EDVE Braunschweig-Wolfsburg Airport
Temperatura
10°C Temperatura
8°C Punto de rocío
88% Humedad



Viento
3 KM/H
2 MPH
1 M/S
2 NUDO



Calma
Norte
Condiciones actuales

Parcialmente nublado Parcialmente nublado
Presión 1011.92 (hPa) - 29.88 (inHg)
Visibilidad 6.2 (milla) - 10 (km)
Aeropuerto
Código de aeropuerto EDVE

localidad: Braunschweig-Wolfsburg Airport
Distancia: 35 (km)

Metar:
EDVE 250220Z AUTO VRB02KT 9999 // FEW051/// SCT140/// BKN170/// 10/08 Q1012

Hora: 25-05-2022 04:20 CEST